createdAt,value
2018-03-11T00:03:26.232Z,7.70
2018-03-11T00:05:54.576Z,7.80
2018-03-11T00:08:22.939Z,7.90
2018-03-11T00:10:51.296Z,8.10
2018-03-11T00:13:19.632Z,8.20
2018-03-11T00:15:47.934Z,8.10
2018-03-11T00:18:17.034Z,8.10
2018-03-11T00:20:46.161Z,8.20
2018-03-11T00:23:16.024Z,8.20
2018-03-11T00:25:44.401Z,8.20
2018-03-11T00:28:12.741Z,8.30
2018-03-11T00:30:41.109Z,8.40
2018-03-11T00:33:09.462Z,8.60
2018-03-11T00:35:37.810Z,8.60
2018-03-11T00:38:06.181Z,8.70
2018-03-11T00:40:34.517Z,8.90
2018-03-11T00:43:02.877Z,8.80
2018-03-11T00:45:31.239Z,8.80
2018-03-11T00:48:00.361Z,8.70
2018-03-11T00:50:29.852Z,8.80
2018-03-11T00:52:58.196Z,8.80
2018-03-11T00:55:26.565Z,8.90
2018-03-11T01:05:22.858Z,8.60
2018-03-11T01:07:51.283Z,8.70
2018-03-11T01:10:19.626Z,8.60
2018-03-11T01:12:48.724Z,8.80
2018-03-11T01:15:17.840Z,8.80
2018-03-11T01:17:46.190Z,8.80
2018-03-11T01:20:15.310Z,8.90
2018-03-11T01:22:43.657Z,8.90
2018-03-11T01:25:12.789Z,9.20
2018-03-11T01:27:41.129Z,9.20
2018-03-11T01:30:10.247Z,9.30
2018-03-11T01:32:38.599Z,9.30
2018-03-11T01:35:06.944Z,9.30
2018-03-11T01:37:35.304Z,9.40
2018-03-11T01:40:03.509Z,9.40
2018-03-11T01:42:31.863Z,9.50
2018-03-11T01:45:00.251Z,9.60
2018-03-11T01:47:29.532Z,9.60
2018-03-11T01:49:57.898Z,9.60
2018-03-11T01:52:26.237Z,9.70
2018-03-11T01:54:54.592Z,9.70
2018-03-11T01:57:22.944Z,9.80
2018-03-11T01:59:51.306Z,9.80
2018-03-11T02:02:19.644Z,9.80
2018-03-11T02:04:47.991Z,9.80
2018-03-11T02:07:16.142Z,9.80
2018-03-11T02:09:44.500Z,9.80
2018-03-11T02:12:13.606Z,9.70
2018-03-11T02:14:41.941Z,9.70
2018-03-11T02:17:10.308Z,9.70
2018-03-11T02:19:38.750Z,9.70
2018-03-11T02:22:07.107Z,9.70
2018-03-11T02:24:36.208Z,9.70
2018-03-11T02:27:04.561Z,9.70
2018-03-11T02:29:33.665Z,9.70
2018-03-11T02:32:02.782Z,9.60
2018-03-11T02:34:31.130Z,9.60
2018-03-11T02:36:59.673Z,9.60
2018-03-11T02:39:28.026Z,9.60
2018-03-11T02:41:56.371Z,9.50
2018-03-11T02:44:25.491Z,9.50
2018-03-11T02:46:53.846Z,9.50
2018-03-11T02:49:22.963Z,9.50
2018-03-11T02:51:51.306Z,9.50
2018-03-11T02:54:19.652Z,9.50
2018-03-11T02:56:47.993Z,9.40
2018-03-11T02:59:16.354Z,9.40
2018-03-11T03:01:45.459Z,9.40
2018-03-11T03:04:14.589Z,9.40
2018-03-11T03:06:42.941Z,9.40
2018-03-11T03:09:11.335Z,9.30
2018-03-11T03:11:39.848Z,9.30
2018-03-11T03:14:08.191Z,9.20
2018-03-11T03:16:36.542Z,9.10
2018-03-11T03:19:05.656Z,9.30
2018-03-11T03:21:34.001Z,9.30
2018-03-11T03:24:03.116Z,9.40
2018-03-11T03:26:32.235Z,9.40
2018-03-11T03:29:00.579Z,9.40
2018-03-11T03:31:29.706Z,9.50
2018-03-11T03:33:58.043Z,9.50
2018-03-11T03:36:27.164Z,9.60
2018-03-11T03:38:55.505Z,9.60
2018-03-11T03:41:23.872Z,9.60
2018-03-11T03:43:52.210Z,9.60
2018-03-11T03:46:20.547Z,9.60
2018-03-11T03:48:49.656Z,9.60
2018-03-11T03:51:22.616Z,9.60
2018-03-11T03:53:50.972Z,9.60
2018-03-11T03:56:19.313Z,9.60
2018-03-11T03:58:47.875Z,9.70
2018-03-11T04:01:16.968Z,9.70
2018-03-11T04:03:46.092Z,9.70
2018-03-11T04:06:14.476Z,9.70
2018-03-11T04:08:42.820Z,9.70
2018-03-11T04:11:11.922Z,9.70
2018-03-11T04:13:41.052Z,9.90
2018-03-11T04:16:09.384Z,9.90
2018-03-11T04:18:38.614Z,9.90
2018-03-11T04:21:06.951Z,9.90
2018-03-11T04:23:36.065Z,9.90
2018-03-11T04:26:05.185Z,9.90
2018-03-11T04:28:33.541Z,9.90
2018-03-11T04:31:01.892Z,9.90
2018-03-11T04:33:30.996Z,9.70
2018-03-11T04:36:00.109Z,9.60
2018-03-11T04:38:28.469Z,9.60
2018-03-11T04:40:57.597Z,9.60
2018-03-11T04:43:25.931Z,9.60
2018-03-11T04:45:54.315Z,9.60
2018-03-11T04:48:23.424Z,9.40
2018-03-11T04:50:52.543Z,9.30
2018-03-11T04:53:20.889Z,9.30
2018-03-11T04:55:50.022Z,9.10
2018-03-11T04:58:18.357Z,9.10
2018-03-11T05:00:47.483Z,9.00
2018-03-11T05:03:15.820Z,9.00
2018-03-11T05:05:44.177Z,8.90
2018-03-11T05:08:12.634Z,8.80
2018-03-11T05:10:40.993Z,8.80
2018-03-11T05:13:09.328Z,8.70
2018-03-11T05:15:37.694Z,8.70
2018-03-11T05:18:06.055Z,8.70
2018-03-11T05:20:34.392Z,8.70
2018-03-11T05:23:03.514Z,8.60
2018-03-11T05:25:31.849Z,8.60
2018-03-11T05:28:00.976Z,8.50
2018-03-11T05:30:29.311Z,8.50
2018-03-11T05:32:58.434Z,8.60
2018-03-11T05:35:26.777Z,8.60
2018-03-11T05:37:55.136Z,8.70
2018-03-11T05:40:23.469Z,8.50
2018-03-11T05:45:21.974Z,8.70
2018-03-11T05:47:50.324Z,8.70
2018-03-11T05:50:20.161Z,9.50
2018-03-11T05:52:48.516Z,9.50
2018-03-11T05:55:17.632Z,10.30
2018-03-11T05:57:46.072Z,10.20
2018-03-11T06:00:14.416Z,10.50
2018-03-11T06:02:42.780Z,10.90
2018-03-11T06:05:11.148Z,11.10
2018-03-11T06:07:39.523Z,11.40
2018-03-11T06:10:07.881Z,11.50
2018-03-11T06:12:37.081Z,11.60
2018-03-11T06:15:06.213Z,11.70
2018-03-11T06:17:34.568Z,11.70
2018-03-11T06:20:02.940Z,11.80
2018-03-11T06:25:00.664Z,11.90
2018-03-11T06:27:29.015Z,12.00
2018-03-11T06:29:58.544Z,12.10
2018-03-11T06:32:26.936Z,12.10
2018-03-11T06:34:55.453Z,12.20
2018-03-11T06:37:24.565Z,12.20
2018-03-11T06:39:52.925Z,12.20
2018-03-11T06:42:22.422Z,12.20
2018-03-11T06:44:50.783Z,12.20
2018-03-11T06:47:19.149Z,12.20
2018-03-11T06:52:19.680Z,12.20
2018-03-11T06:54:48.036Z,12.20
2018-03-11T06:57:16.385Z,12.20
2018-03-11T06:59:45.866Z,12.30
2018-03-11T07:02:14.226Z,12.20
2018-03-11T07:04:42.684Z,12.30
2018-03-11T07:07:11.075Z,12.30
2018-03-11T07:09:39.408Z,12.30
2018-03-11T07:12:08.537Z,12.50
2018-03-11T07:14:36.885Z,12.40
2018-03-11T07:17:06.128Z,12.50
2018-03-11T07:19:34.478Z,12.50
2018-03-11T07:22:02.892Z,12.50
2018-03-11T07:24:31.271Z,12.50
2018-03-11T07:26:59.781Z,12.50
2018-03-11T07:29:28.137Z,12.50
2018-03-11T07:31:56.540Z,12.50
2018-03-11T07:34:25.710Z,12.50
2018-03-11T07:36:54.073Z,12.50
2018-03-11T07:39:22.431Z,12.50
2018-03-11T07:41:50.782Z,12.50
2018-03-11T07:44:19.142Z,12.60
2018-03-11T07:46:47.485Z,12.60
2018-03-11T07:49:15.846Z,12.60
2018-03-11T07:51:44.632Z,12.70
2018-03-11T07:54:12.989Z,12.70
2018-03-11T07:56:41.346Z,12.80
2018-03-11T07:59:10.579Z,12.80
2018-03-11T08:01:38.928Z,12.70
2018-03-11T08:04:08.050Z,12.80
2018-03-11T08:06:36.389Z,12.90
2018-03-11T08:09:04.921Z,12.90
2018-03-11T08:11:33.288Z,12.80
2018-03-11T08:14:01.646Z,12.80
2018-03-11T08:16:30.780Z,12.80
2018-03-11T08:18:59.146Z,12.80
2018-03-11T08:21:30.238Z,12.80
2018-03-11T08:23:59.158Z,12.80
2018-03-11T08:26:27.572Z,12.80
2018-03-11T08:28:55.930Z,12.80
2018-03-11T08:31:24.307Z,12.80
2018-03-11T08:33:52.719Z,12.80
2018-03-11T08:36:21.084Z,12.80
2018-03-11T08:38:49.442Z,12.70
2018-03-11T08:41:17.890Z,12.80
2018-03-11T08:43:46.995Z,12.80
2018-03-11T08:46:16.121Z,12.80
2018-03-11T08:48:44.506Z,12.80
2018-03-11T08:51:13.157Z,12.90
2018-03-11T08:53:42.368Z,13.00
2018-03-11T08:56:10.888Z,12.90
2018-03-11T08:58:39.481Z,13.00
2018-03-11T09:01:07.979Z,13.00
2018-03-11T09:03:36.427Z,13.10
2018-03-11T09:06:04.816Z,13.10
2018-03-11T09:08:33.174Z,13.10
2018-03-11T09:11:01.530Z,13.10
2018-03-11T09:13:29.906Z,13.10
2018-03-11T09:15:58.308Z,13.10
2018-03-11T09:18:27.425Z,13.20
2018-03-11T09:20:55.776Z,13.20
2018-03-11T09:23:24.210Z,13.30
2018-03-11T09:25:53.357Z,13.20
2018-03-11T09:28:21.769Z,13.10
2018-03-11T09:30:50.120Z,13.10
2018-03-11T09:33:18.487Z,13.10
2018-03-11T09:35:46.829Z,13.10
2018-03-11T09:38:15.203Z,13.20
2018-03-11T09:40:44.314Z,13.40
2018-03-11T09:43:12.664Z,13.40
2018-03-11T09:45:41.770Z,13.50
2018-03-11T09:48:10.961Z,13.50
2018-03-11T09:50:40.085Z,13.40
2018-03-11T09:53:08.430Z,13.40
2018-03-11T09:55:37.546Z,13.40
2018-03-11T09:58:06.039Z,13.40
2018-03-11T10:00:35.002Z,13.40
2018-03-11T10:03:04.477Z,13.60
2018-03-11T10:05:32.862Z,13.60
2018-03-11T10:08:01.204Z,13.60
2018-03-11T10:10:29.670Z,13.70
2018-03-11T10:12:58.047Z,13.80
2018-03-11T10:15:26.612Z,13.80
2018-03-11T10:17:54.977Z,13.80
2018-03-11T10:20:24.105Z,13.80
2018-03-11T10:22:52.452Z,13.80
2018-03-11T10:25:20.894Z,13.80
2018-03-11T10:27:49.340Z,13.80
2018-03-11T10:30:17.748Z,13.80
2018-03-11T10:32:46.952Z,13.90
2018-03-11T10:35:15.409Z,14.00
2018-03-11T10:37:43.753Z,14.00
2018-03-11T10:40:12.116Z,14.00
2018-03-11T10:42:41.380Z,14.10
2018-03-11T10:45:09.410Z,14.10
2018-03-11T10:47:38.440Z,14.20
2018-03-11T10:50:06.867Z,14.20
2018-03-11T10:52:36.087Z,14.00
2018-03-11T10:55:04.431Z,14.00
2018-03-11T10:57:34.560Z,14.00
2018-03-11T11:00:02.985Z,14.20
2018-03-11T11:02:35.999Z,14.10
2018-03-11T11:05:03.728Z,14.10
2018-03-11T11:07:32.081Z,14.20
2018-03-11T11:10:00.438Z,14.30
2018-03-11T11:12:29.581Z,14.40
2018-03-11T11:14:57.936Z,14.40
2018-03-11T11:17:26.305Z,14.50
2018-03-11T11:19:54.656Z,14.60
2018-03-11T11:22:23.023Z,14.60
2018-03-11T11:24:51.372Z,14.60
2018-03-11T11:27:19.734Z,14.70
2018-03-11T11:29:48.094Z,14.70
2018-03-11T11:32:16.457Z,14.60
2018-03-11T11:34:45.732Z,14.70
2018-03-11T11:37:14.098Z,14.70
2018-03-11T11:39:42.455Z,14.70
2018-03-11T11:42:11.034Z,14.60
2018-03-11T11:44:39.399Z,14.40
2018-03-11T11:47:07.781Z,14.30
2018-03-11T11:49:36.136Z,14.30
2018-03-11T11:52:04.556Z,14.30
2018-03-11T11:54:32.903Z,14.40
2018-03-11T11:57:01.269Z,14.40
2018-03-11T11:59:30.392Z,14.30
2018-03-11T12:01:58.949Z,14.30
2018-03-11T12:04:28.144Z,14.20
2018-03-11T12:06:57.518Z,14.30
2018-03-11T12:09:26.675Z,14.30
2018-03-11T12:11:55.054Z,14.20
2018-03-11T12:14:23.628Z,14.20
2018-03-11T12:16:52.013Z,14.20
2018-03-11T12:19:20.371Z,14.20
2018-03-11T12:21:48.825Z,14.20
2018-03-11T12:24:18.297Z,14.20
2018-03-11T12:26:47.469Z,14.20
2018-03-11T12:29:15.862Z,14.20
2018-03-11T12:31:44.227Z,14.10
2018-03-11T12:34:12.581Z,14.10
2018-03-11T12:36:41.710Z,14.10
2018-03-11T12:39:10.211Z,14.10
2018-03-11T12:41:38.594Z,14.10
2018-03-11T12:44:06.944Z,14.00
2018-03-11T12:46:35.109Z,13.90
2018-03-11T12:49:03.465Z,13.90
2018-03-11T12:51:31.819Z,14.00
2018-03-11T12:54:00.929Z,14.00
2018-03-11T12:56:30.142Z,14.00
2018-03-11T12:58:58.511Z,14.00
2018-03-11T13:01:27.003Z,14.10
2018-03-11T13:03:59.140Z,14.10
2018-03-11T13:06:28.522Z,14.00
2018-03-11T13:08:56.874Z,14.00
2018-03-11T13:11:27.413Z,14.00
2018-03-11T13:13:55.829Z,14.00
2018-03-11T13:16:25.329Z,13.90
2018-03-11T13:18:54.470Z,13.90
2018-03-11T13:21:22.817Z,13.90
2018-03-11T13:23:51.656Z,13.90
2018-03-11T13:26:20.910Z,13.90
2018-03-11T13:28:49.645Z,13.90
2018-03-11T13:31:18.018Z,13.90
2018-03-11T13:33:58.362Z,14.10
2018-03-11T13:36:26.717Z,14.00
2018-03-11T13:39:06.355Z,14.10
2018-03-11T13:41:47.115Z,14.30
2018-03-11T13:44:15.620Z,14.30
2018-03-11T13:47:10.274Z,14.70
2018-03-11T13:49:40.341Z,15.30
2018-03-11T13:52:19.913Z,15.20
2018-03-11T13:54:48.640Z,15.50
2018-03-11T14:10:56.996Z,16.20
2018-03-11T14:13:25.339Z,16.20
2018-03-11T14:15:53.689Z,15.90
2018-03-11T14:18:22.840Z,15.30
2018-03-11T14:20:51.828Z,15.30
2018-03-11T14:23:20.176Z,15.20
2018-03-11T14:25:48.561Z,15.10
2018-03-11T14:28:16.977Z,15.20
2018-03-11T14:30:45.344Z,15.20
2018-03-11T14:33:13.743Z,15.10
2018-03-11T14:35:42.209Z,15.00
2018-03-11T14:38:10.557Z,14.90
2018-03-11T14:40:39.118Z,15.10
2018-03-11T14:43:07.468Z,15.20
2018-03-11T14:45:35.817Z,15.20
2018-03-11T14:48:04.175Z,15.30
2018-03-11T14:50:32.602Z,15.40
2018-03-11T14:53:01.712Z,15.10
2018-03-11T14:55:30.100Z,15.10
2018-03-11T14:57:58.478Z,15.00
2018-03-11T15:00:26.812Z,15.00
2018-03-11T15:02:54.993Z,15.00
2018-03-11T15:05:23.384Z,14.80
2018-03-11T15:07:53.108Z,14.70
2018-03-11T15:10:22.305Z,14.80
2018-03-11T15:12:50.665Z,14.70
2018-03-11T15:15:19.068Z,14.70
2018-03-11T15:17:47.425Z,14.70
2018-03-11T15:20:16.561Z,14.50
2018-03-11T15:22:44.925Z,14.50
2018-03-11T15:25:13.346Z,14.50
2018-03-11T15:27:41.884Z,14.40
2018-03-11T15:30:10.231Z,14.40
2018-03-11T15:32:38.581Z,14.40
2018-03-11T15:35:08.137Z,14.50
2018-03-11T15:37:36.884Z,14.40
2018-03-11T15:40:04.942Z,14.30
2018-03-11T15:42:33.319Z,14.30
2018-03-11T15:45:01.689Z,14.20
2018-03-11T15:47:30.052Z,14.20
2018-03-11T15:49:58.413Z,14.30
2018-03-11T15:52:26.822Z,14.20
2018-03-11T15:54:55.176Z,14.20
2018-03-11T15:57:23.631Z,14.10
2018-03-11T15:59:52.029Z,14.10
2018-03-11T16:02:21.148Z,14.10
2018-03-11T16:04:49.521Z,14.00
2018-03-11T16:07:17.866Z,14.00
2018-03-11T16:09:47.022Z,14.00
2018-03-11T16:12:16.153Z,14.00
2018-03-11T16:14:45.273Z,14.00
2018-03-11T16:17:13.660Z,14.00
2018-03-11T16:19:42.011Z,13.90
2018-03-11T16:22:10.376Z,13.90
2018-03-11T16:24:39.828Z,13.90
2018-03-11T16:27:08.097Z,13.80
2018-03-11T16:29:36.470Z,13.80
2018-03-11T16:32:04.863Z,13.80
2018-03-11T16:34:33.286Z,13.70
2018-03-11T16:37:01.814Z,13.70
2018-03-11T16:39:30.186Z,13.70
2018-03-11T16:41:58.569Z,13.70
2018-03-11T16:44:26.918Z,13.60
2018-03-11T16:46:56.146Z,13.50
2018-03-11T16:49:24.549Z,13.50
2018-03-11T16:51:52.964Z,13.40
2018-03-11T16:54:22.068Z,13.30
2018-03-11T16:56:51.217Z,13.30
2018-03-11T16:59:19.779Z,13.30
2018-03-11T17:01:48.129Z,13.30
2018-03-11T17:04:16.509Z,13.20
2018-03-11T17:06:44.860Z,13.20
2018-03-11T17:09:13.200Z,13.20
2018-03-11T17:11:41.662Z,13.20
2018-03-11T17:14:10.020Z,13.10
2018-03-11T17:16:39.144Z,13.00
2018-03-11T17:19:07.384Z,13.00
2018-03-11T17:21:36.525Z,13.00
2018-03-11T17:24:04.559Z,12.90
2018-03-11T17:26:32.900Z,12.90
2018-03-11T17:29:01.266Z,12.90
2018-03-11T17:31:29.616Z,12.90
2018-03-11T17:33:58.021Z,12.90
2018-03-11T17:36:26.411Z,12.80
2018-03-11T17:38:54.760Z,12.70
2018-03-11T17:41:23.879Z,12.60
2018-03-11T17:43:52.241Z,12.50
2018-03-11T17:46:20.591Z,12.40
2018-03-11T17:48:48.982Z,12.40
2018-03-11T17:51:18.312Z,12.30
2018-03-11T17:53:47.474Z,12.20
2018-03-11T17:56:15.873Z,12.20
2018-03-11T17:58:44.229Z,12.20
2018-03-11T18:01:12.781Z,12.10
2018-03-11T18:03:42.105Z,12.10
2018-03-11T18:06:10.484Z,12.10
2018-03-11T18:08:38.916Z,12.00
2018-03-11T18:11:07.493Z,12.00
2018-03-11T18:13:36.253Z,12.00
2018-03-11T18:16:04.641Z,12.00
2018-03-11T18:18:33.004Z,12.00
2018-03-11T18:21:01.418Z,12.00
2018-03-11T18:23:29.811Z,12.00
2018-03-11T18:25:58.948Z,11.90
2018-03-11T18:28:27.326Z,11.90
2018-03-11T18:30:55.756Z,11.90
2018-03-11T18:33:23.930Z,11.90
2018-03-11T18:35:53.048Z,11.70
2018-03-11T18:38:22.162Z,11.70
2018-03-11T18:40:50.523Z,11.70
2018-03-11T18:43:18.987Z,11.70
2018-03-11T18:45:48.140Z,11.60
2018-03-11T18:48:16.529Z,11.60
2018-03-11T18:50:44.893Z,11.60
2018-03-11T18:53:13.253Z,11.50
2018-03-11T18:55:41.624Z,11.50
2018-03-11T18:58:09.980Z,11.40
2018-03-11T19:00:39.105Z,11.40
2018-03-11T19:03:07.488Z,11.40
2018-03-11T19:05:35.827Z,11.40
2018-03-11T19:08:04.986Z,11.30
2018-03-11T19:10:33.454Z,11.30
2018-03-11T19:13:01.819Z,11.30
2018-03-11T19:15:30.272Z,11.20
2018-03-11T19:17:58.714Z,11.20
2018-03-11T19:20:27.047Z,11.20
2018-03-11T19:22:55.406Z,11.10
2018-03-11T19:25:24.624Z,11.10
2018-03-11T19:27:52.980Z,11.10
2018-03-11T19:30:22.169Z,11.10
2018-03-11T19:32:51.659Z,11.00
2018-03-11T19:35:19.877Z,11.00
2018-03-11T19:37:48.400Z,11.00
2018-03-11T19:40:16.770Z,10.90
2018-03-11T19:42:45.150Z,11.00
2018-03-11T19:45:13.494Z,10.90
2018-03-11T19:47:42.087Z,11.00
2018-03-11T19:50:16.295Z,10.90
2018-03-11T19:52:44.728Z,10.90
2018-03-11T19:55:13.123Z,10.90
2018-03-11T19:57:42.399Z,10.90
2018-03-11T20:00:10.879Z,10.80
2018-03-11T20:02:39.223Z,10.80
2018-03-11T20:05:07.596Z,10.80
2018-03-11T20:07:35.946Z,10.80
2018-03-11T20:10:04.032Z,10.80
2018-03-11T20:12:32.467Z,10.80
2018-03-11T20:15:01.631Z,10.70
2018-03-11T20:17:30.024Z,10.70
2018-03-11T20:19:58.378Z,10.70
2018-03-11T20:22:26.725Z,10.60
2018-03-11T20:24:55.100Z,10.60
2018-03-11T20:27:24.239Z,10.60
2018-03-11T20:29:52.608Z,10.60
2018-03-11T20:32:21.102Z,10.50
2018-03-11T20:34:49.610Z,10.50
2018-03-11T20:37:17.963Z,10.50
2018-03-11T20:39:46.334Z,10.50
2018-03-11T20:42:14.708Z,10.50
2018-03-11T20:44:43.326Z,10.50
2018-03-11T20:47:12.534Z,10.50
2018-03-11T20:49:42.309Z,10.50
2018-03-11T20:52:11.588Z,10.50
2018-03-11T20:54:40.011Z,10.50
2018-03-11T20:57:09.152Z,10.40
2018-03-11T20:59:37.498Z,10.40
2018-03-11T21:02:05.915Z,10.30
2018-03-11T21:04:34.305Z,10.30
2018-03-11T21:07:02.762Z,10.30
2018-03-11T21:09:31.117Z,10.20
2018-03-11T21:12:00.300Z,10.20
2018-03-11T21:14:28.648Z,10.20
2018-03-11T21:16:56.996Z,10.20
2018-03-11T21:19:25.414Z,10.20
2018-03-11T21:21:53.811Z,10.10
2018-03-11T21:24:22.458Z,10.10
2018-03-11T21:26:50.846Z,10.10
2018-03-11T21:29:20.687Z,10.10
2018-03-11T21:31:49.831Z,10.10
2018-03-11T21:34:18.174Z,10.10
2018-03-11T21:36:47.276Z,10.00
2018-03-11T21:39:20.540Z,10.00
2018-03-11T21:41:48.970Z,10.00
2018-03-11T21:44:17.344Z,9.90
2018-03-11T21:46:46.103Z,9.90
2018-03-11T21:49:16.665Z,9.90
2018-03-11T21:51:45.047Z,9.90
2018-03-11T21:54:13.460Z,9.90
2018-03-11T21:56:41.812Z,9.90
2018-03-11T21:59:10.157Z,10.00
2018-03-11T22:01:37.849Z,10.00
2018-03-11T22:04:06.217Z,10.00
2018-03-11T22:06:35.720Z,9.90
2018-03-11T22:09:03.501Z,9.90
2018-03-11T22:11:31.840Z,9.90
2018-03-11T22:14:00.941Z,9.90
2018-03-11T22:16:29.296Z,9.90
2018-03-11T22:18:57.635Z,9.90
2018-03-11T22:21:26.894Z,9.90
2018-03-11T22:23:56.329Z,9.80
2018-03-11T22:26:24.666Z,9.90
2018-03-11T22:28:53.041Z,9.80
2018-03-11T22:31:21.677Z,9.90
2018-03-11T22:33:50.043Z,9.90
2018-03-11T22:36:18.375Z,9.80
2018-03-11T22:38:47.591Z,9.70
2018-03-11T22:41:17.099Z,9.70
2018-03-11T22:43:45.419Z,9.70
2018-03-11T22:46:13.781Z,9.70
2018-03-11T22:48:42.120Z,9.70
2018-03-11T22:51:10.460Z,9.70
2018-03-11T22:53:38.868Z,9.70
2018-03-11T22:56:07.970Z,9.70
2018-03-11T22:58:37.089Z,9.70
2018-03-11T23:01:04.759Z,9.60
2018-03-11T23:03:33.100Z,9.60
2018-03-11T23:06:02.223Z,9.50
2018-03-11T23:08:30.583Z,9.40
2018-03-11T23:10:58.953Z,9.50
2018-03-11T23:13:28.903Z,9.50
2018-03-11T23:15:57.244Z,9.40
2018-03-11T23:18:26.365Z,9.50
2018-03-11T23:20:54.694Z,9.50
2018-03-11T23:23:22.715Z,9.60
2018-03-11T23:25:51.093Z,9.60
2018-03-11T23:28:19.554Z,9.60
2018-03-11T23:30:47.906Z,9.60
2018-03-11T23:33:16.235Z,9.60
2018-03-11T23:35:44.589Z,9.70
2018-03-11T23:38:12.969Z,9.70
2018-03-11T23:40:41.316Z,9.70
2018-03-11T23:43:10.455Z,9.70
2018-03-11T23:45:38.981Z,9.60
2018-03-11T23:48:07.330Z,9.60
2018-03-11T23:50:35.661Z,9.60
2018-03-11T23:53:04.778Z,9.60
2018-03-11T23:55:33.111Z,9.50
2018-03-11T23:58:01.518Z,9.50
